createdAt,value
2018-03-28T00:01:13.323Z,48.57
2018-03-28T00:03:43.749Z,51.20
2018-03-28T00:06:10.872Z,43.30
2018-03-28T00:08:38.683Z,47.20
2018-03-28T00:11:05.067Z,52.73
2018-03-28T00:13:32.592Z,55.03
2018-03-28T00:15:59.017Z,52.87
2018-03-28T00:18:25.297Z,45.60
2018-03-28T00:20:51.879Z,48.00
2018-03-28T00:23:18.581Z,46.93
2018-03-28T00:25:44.797Z,52.27
2018-03-28T00:28:10.960Z,52.07
2018-03-28T00:30:37.291Z,50.07
2018-03-28T00:33:05.068Z,54.70
2018-03-28T00:35:31.720Z,49.87
2018-03-28T00:37:58.082Z,52.00
2018-03-28T00:40:24.953Z,50.90
2018-03-28T00:42:51.260Z,53.27
2018-03-28T00:45:18.147Z,54.10
2018-03-28T00:47:44.528Z,50.40
2018-03-28T00:50:10.812Z,54.90
2018-03-28T00:52:38.071Z,52.30
2018-03-28T00:55:04.772Z,64.10
2018-03-28T00:57:30.914Z,61.07
2018-03-28T00:59:57.083Z,61.63
2018-03-28T01:02:23.283Z,53.67
2018-03-28T01:04:49.942Z,58.57
2018-03-28T01:07:16.397Z,55.70
2018-03-28T01:09:42.622Z,60.33
2018-03-28T01:12:09.509Z,53.70
2018-03-28T01:14:36.650Z,53.47
2018-03-28T01:17:03.111Z,54.00
2018-03-28T01:19:29.243Z,56.73
2018-03-28T01:21:55.345Z,54.70
2018-03-28T01:24:21.491Z,56.13
2018-03-28T01:26:47.739Z,57.27
2018-03-28T01:29:14.176Z,54.80
2018-03-28T01:31:40.711Z,60.33
2018-03-28T01:34:06.917Z,52.00
2018-03-28T01:53:17.606Z,57.57
2018-03-28T01:55:43.905Z,58.13
2018-03-28T01:58:11.655Z,59.70
2018-03-28T02:00:37.780Z,57.43
2018-03-28T02:03:03.868Z,56.07
2018-03-28T02:05:30.097Z,60.97
2018-03-28T02:07:56.217Z,61.10
2018-03-28T02:10:22.500Z,58.57
2018-03-28T02:12:48.718Z,54.77
2018-03-28T02:15:15.871Z,56.87
2018-03-28T02:17:41.954Z,65.10
2018-03-28T02:20:08.072Z,68.00
2018-03-28T02:22:34.250Z,54.03
2018-03-28T02:25:00.489Z,55.47
2018-03-28T02:27:27.269Z,57.43
2018-03-28T02:29:54.270Z,59.77
2018-03-28T02:32:20.473Z,63.37
2018-03-28T02:34:46.591Z,58.37
2018-03-28T02:37:12.791Z,62.63
2018-03-28T02:39:38.922Z,59.73
2018-03-28T02:42:05.056Z,57.97
2018-03-28T02:44:31.380Z,55.50
2018-03-28T02:46:57.425Z,59.47
2018-03-28T02:49:23.533Z,55.60
2018-03-28T02:51:50.473Z,54.70
2018-03-28T02:54:16.807Z,61.30
2018-03-28T02:56:42.930Z,55.83
2018-03-28T02:59:09.065Z,63.07
2018-03-28T03:01:35.183Z,57.60
2018-03-28T03:20:47.304Z,61.33
2018-03-28T03:23:13.537Z,55.80
2018-03-28T03:25:40.576Z,55.80
2018-03-28T03:28:07.829Z,58.50
2018-03-28T03:30:34.467Z,58.50
2018-03-28T03:33:00.646Z,59.07
2018-03-28T03:35:27.235Z,50.90
2018-03-28T03:37:53.408Z,52.80
2018-03-28T03:40:19.655Z,55.87
2018-03-28T03:42:45.814Z,54.80
2018-03-28T03:45:12.818Z,53.47
2018-03-28T03:47:39.657Z,53.97
2018-03-28T03:50:05.831Z,48.93
2018-03-28T03:52:33.444Z,47.00
2018-03-28T03:55:00.386Z,49.80
2018-03-28T03:57:26.521Z,53.13
2018-03-28T03:59:52.701Z,54.47
2018-03-28T04:02:19.949Z,50.20
2018-03-28T04:04:46.590Z,60.87
2018-03-28T04:07:13.151Z,47.23
2018-03-28T04:09:39.351Z,50.77
2018-03-28T04:12:06.070Z,50.70
2018-03-28T04:14:32.404Z,42.97
2018-03-28T04:16:58.846Z,45.77
2018-03-28T04:32:48.590Z,47.00
2018-03-28T04:35:15.526Z,44.93
2018-03-28T04:37:41.680Z,51.40
2018-03-28T04:40:07.805Z,48.90
2018-03-28T04:42:33.904Z,47.87
2018-03-28T04:45:00.209Z,46.93
2018-03-28T04:47:26.848Z,43.97
2018-03-28T04:49:52.957Z,47.80
2018-03-28T04:52:19.509Z,47.97
2018-03-28T04:54:45.601Z,45.03
2018-03-28T04:57:11.731Z,44.37
2018-03-28T04:59:37.976Z,43.57
2018-03-28T05:02:04.445Z,49.30
2018-03-28T05:04:30.759Z,45.10
2018-03-28T05:06:57.345Z,40.60
2018-03-28T05:09:24.162Z,45.20
2018-03-28T05:11:50.637Z,41.33
2018-03-28T05:14:17.186Z,39.50
2018-03-28T05:33:46.027Z,37.40
2018-03-28T05:52:55.479Z,33.27
2018-03-28T05:55:22.102Z,28.40
2018-03-28T05:57:48.434Z,29.53
2018-03-28T06:00:15.775Z,28.87
2018-03-28T06:02:42.305Z,30.43
2018-03-28T06:05:08.481Z,28.90
2018-03-28T06:07:35.144Z,24.20
2018-03-28T06:10:01.580Z,24.07
2018-03-28T06:12:29.396Z,23.53
2018-03-28T06:14:56.418Z,22.13
2018-03-28T06:17:22.590Z,25.90
2018-03-28T06:19:48.878Z,22.70
2018-03-28T06:22:16.301Z,24.03
2018-03-28T06:24:42.483Z,24.93
2018-03-28T06:27:08.782Z,18.97
2018-03-28T06:29:38.520Z,24.97
2018-03-28T06:32:06.280Z,20.00
2018-03-28T06:34:32.715Z,22.00
2018-03-28T06:37:00.008Z,21.40
2018-03-28T06:39:26.208Z,19.27
2018-03-28T06:41:52.377Z,18.43
2018-03-28T06:44:18.801Z,19.00
2018-03-28T06:46:45.399Z,16.50
2018-03-28T06:49:12.349Z,17.73
2018-03-28T06:51:38.663Z,13.80
2018-03-28T06:54:05.738Z,13.57
2018-03-28T07:13:15.176Z,13.83
2018-03-28T07:15:41.618Z,10.23
2018-03-28T07:18:07.724Z,11.93
2018-03-28T07:20:35.778Z,11.37
2018-03-28T07:23:01.918Z,9.87
2018-03-28T07:25:28.095Z,10.10
2018-03-28T07:27:55.195Z,12.00
2018-03-28T07:30:21.673Z,12.33
2018-03-28T07:32:48.920Z,10.07
2018-03-28T07:35:15.048Z,11.10
2018-03-28T07:37:41.382Z,12.20
2018-03-28T07:40:07.940Z,8.57
2018-03-28T07:42:34.844Z,10.80
2018-03-28T07:45:02.119Z,8.00
2018-03-28T07:47:28.193Z,9.07
2018-03-28T07:49:54.364Z,9.13
2018-03-28T07:52:20.854Z,9.87
2018-03-28T07:54:46.933Z,7.30
2018-03-28T07:57:14.762Z,9.10
2018-03-28T07:59:41.925Z,9.30
2018-03-28T08:02:08.786Z,10.40
2018-03-28T08:04:36.552Z,11.60
2018-03-28T08:07:08.410Z,10.30
2018-03-28T08:09:35.532Z,10.40
2018-03-28T08:12:01.683Z,8.43
2018-03-28T08:28:36.387Z,8.07
2018-03-28T08:31:04.275Z,9.97
2018-03-28T08:33:31.258Z,7.27
2018-03-28T08:35:57.404Z,10.60
2018-03-28T08:38:24.344Z,10.27
2018-03-28T08:40:50.466Z,12.83
2018-03-28T08:43:18.184Z,9.33
2018-03-28T08:59:54.906Z,12.43
2018-03-28T09:02:21.058Z,9.63
2018-03-28T09:04:49.259Z,11.10
2018-03-28T09:07:15.590Z,10.80
2018-03-28T09:26:25.721Z,12.37
2018-03-28T09:28:53.415Z,11.60
2018-03-28T09:45:28.355Z,11.20
2018-03-28T09:47:56.165Z,13.20
2018-03-28T09:50:23.048Z,12.70
2018-03-28T09:52:49.861Z,11.50
2018-03-28T09:55:16.065Z,10.13
2018-03-28T09:57:42.232Z,14.43
2018-03-28T10:00:08.937Z,11.77
2018-03-28T10:02:41.608Z,13.80
2018-03-28T10:05:11.480Z,12.20
2018-03-28T10:07:37.566Z,15.57
2018-03-28T10:10:05.158Z,13.73
2018-03-28T10:12:32.626Z,18.80
2018-03-28T10:14:59.326Z,13.30
2018-03-28T10:17:25.476Z,12.83
2018-03-28T10:19:52.908Z,13.73
2018-03-28T10:22:19.034Z,13.00
2018-03-28T10:24:46.129Z,13.07
2018-03-28T10:27:12.618Z,11.57
2018-03-28T10:29:38.740Z,11.40
2018-03-28T10:32:04.970Z,12.40
2018-03-28T10:34:31.127Z,12.83
2018-03-28T10:36:57.819Z,11.50
2018-03-28T10:39:24.030Z,14.60
2018-03-28T10:41:50.137Z,12.23
2018-03-28T10:44:16.263Z,20.60
2018-03-28T10:46:42.343Z,14.43
2018-03-28T10:49:08.881Z,17.10
2018-03-28T10:51:35.136Z,13.07
2018-03-28T10:54:01.315Z,14.70
2018-03-28T10:56:28.484Z,12.73
2018-03-28T10:58:54.709Z,15.57
2018-03-28T11:01:20.826Z,15.43
2018-03-28T11:03:47.182Z,15.20
2018-03-28T11:06:13.300Z,18.73
2018-03-28T11:08:40.473Z,14.73
2018-03-28T11:11:06.779Z,17.37
2018-03-28T11:13:34.691Z,19.57
2018-03-28T11:16:00.828Z,15.13
2018-03-28T11:18:27.680Z,12.13
2018-03-28T11:20:54.700Z,12.50
2018-03-28T11:23:20.783Z,14.17
2018-03-28T11:25:47.761Z,14.60
2018-03-28T11:28:15.138Z,12.40
2018-03-28T11:30:41.299Z,14.90
2018-03-28T11:33:08.485Z,15.03
2018-03-28T11:35:34.741Z,15.30
2018-03-28T11:38:01.647Z,13.73
2018-03-28T11:40:28.362Z,13.03
2018-03-28T11:42:57.104Z,13.17
2018-03-28T11:45:23.123Z,22.30
2018-03-28T11:47:49.335Z,14.80
2018-03-28T11:50:15.667Z,16.83
2018-03-28T11:52:41.784Z,14.17
2018-03-28T11:55:07.942Z,11.73
2018-03-28T11:57:34.277Z,22.70
2018-03-28T12:00:00.411Z,12.57
2018-03-28T12:02:26.988Z,15.37
2018-03-28T12:04:53.423Z,13.77
2018-03-28T12:07:20.300Z,11.37
2018-03-28T12:09:48.374Z,14.00
2018-03-28T12:12:14.645Z,16.03
2018-03-28T12:14:40.922Z,12.13
2018-03-28T12:17:09.605Z,18.43
2018-03-28T12:19:37.236Z,17.40
2018-03-28T12:22:04.585Z,14.60
2018-03-28T12:24:30.862Z,15.30
2018-03-28T12:26:57.200Z,23.93
2018-03-28T12:29:24.456Z,17.10
2018-03-28T12:31:50.947Z,14.60
2018-03-28T12:34:18.237Z,18.50
2018-03-28T12:36:44.576Z,15.43
2018-03-28T12:39:10.795Z,18.60
2018-03-28T12:41:37.616Z,18.63
2018-03-28T12:44:03.984Z,18.93
2018-03-28T12:46:30.144Z,19.03
2018-03-28T12:48:56.805Z,16.47
2018-03-28T12:51:22.949Z,17.70
2018-03-28T12:53:49.940Z,17.67
2018-03-28T12:56:17.055Z,16.67
2018-03-28T12:58:43.653Z,14.67
2018-03-28T13:01:10.239Z,17.30
2018-03-28T13:03:36.313Z,14.50
2018-03-28T13:06:04.193Z,14.03
2018-03-28T13:08:32.704Z,12.00
2018-03-28T13:10:58.855Z,13.30
2018-03-28T13:13:25.068Z,15.00
2018-03-28T13:15:51.969Z,12.60
2018-03-28T13:18:18.144Z,16.70
2018-03-28T13:20:44.399Z,12.53
2018-03-28T13:23:10.940Z,15.30
2018-03-28T13:25:38.379Z,13.80
2018-03-28T13:28:06.082Z,14.53
2018-03-28T13:30:32.410Z,13.87
2018-03-28T13:32:58.600Z,12.33
2018-03-28T13:35:25.094Z,13.37
2018-03-28T13:37:51.369Z,11.50
2018-03-28T13:40:18.832Z,12.80
2018-03-28T13:42:46.697Z,10.77
2018-03-28T13:45:12.832Z,14.50
2018-03-28T13:47:39.973Z,13.27
2018-03-28T13:50:08.092Z,17.10
2018-03-28T13:52:35.323Z,10.40
2018-03-28T13:55:02.841Z,11.80
2018-03-28T13:57:29.038Z,13.40
2018-03-28T13:59:56.872Z,10.33
2018-03-28T14:02:23.058Z,30.80
2018-03-28T14:04:49.374Z,11.30
2018-03-28T14:07:17.029Z,18.60
2018-03-28T14:09:45.205Z,10.27
2018-03-28T14:12:11.596Z,9.10
2018-03-28T14:14:38.095Z,11.80
2018-03-28T14:17:06.148Z,16.60
2018-03-28T14:19:33.880Z,12.10
2018-03-28T14:22:00.119Z,12.40
2018-03-28T14:24:26.228Z,16.63
2018-03-28T14:43:36.240Z,10.50
2018-03-28T14:46:04.248Z,10.57
2018-03-28T14:48:31.269Z,11.87
2018-03-28T14:50:58.452Z,13.10
2018-03-28T14:53:25.414Z,12.30
2018-03-28T14:55:51.723Z,9.87
2018-03-28T14:58:17.957Z,11.83
2018-03-28T15:00:46.040Z,12.00
2018-03-28T15:03:13.698Z,14.13
2018-03-28T15:05:39.922Z,15.67
2018-03-28T15:08:06.252Z,14.13
2018-03-28T15:10:32.907Z,19.47
2018-03-28T15:12:59.126Z,10.33
2018-03-28T15:15:25.730Z,13.27
2018-03-28T15:17:52.036Z,14.67
2018-03-28T15:20:18.229Z,13.47
2018-03-28T15:22:44.343Z,16.00
2018-03-28T15:25:11.160Z,13.80
2018-03-28T15:27:38.072Z,14.03
2018-03-28T15:30:07.006Z,13.40
2018-03-28T15:32:47.067Z,13.93
2018-03-28T15:35:13.121Z,12.00
2018-03-28T15:37:39.248Z,11.77
2018-03-28T15:40:06.271Z,12.37
2018-03-28T15:42:33.970Z,13.43
2018-03-28T15:45:00.535Z,9.93
2018-03-28T15:47:26.735Z,13.07
2018-03-28T15:49:52.875Z,9.13
2018-03-28T15:52:19.093Z,8.97
2018-03-28T15:54:46.805Z,10.47
2018-03-28T15:57:13.655Z,15.03
2018-03-28T15:59:39.841Z,7.40
2018-03-28T16:02:06.890Z,10.97
2018-03-28T16:04:33.616Z,12.03
2018-03-28T16:07:00.386Z,9.67
2018-03-28T16:09:27.042Z,12.77
2018-03-28T16:11:53.632Z,13.50
2018-03-28T16:14:21.537Z,10.40
2018-03-28T16:16:48.035Z,11.13
2018-03-28T16:19:14.482Z,14.97
2018-03-28T16:21:43.479Z,13.03
2018-03-28T16:24:10.679Z,13.13
2018-03-28T16:26:37.406Z,12.93
2018-03-28T16:32:27.175Z,21.20
2018-03-28T16:34:54.843Z,14.53
2018-03-28T16:54:03.758Z,11.43
2018-03-28T16:56:30.731Z,12.27
2018-03-28T16:58:56.932Z,14.67
2018-03-28T17:01:23.447Z,14.87
2018-03-28T17:03:50.322Z,18.27
2018-03-28T17:06:17.685Z,12.70
2018-03-28T17:08:43.738Z,13.77
2018-03-28T17:11:10.639Z,14.27
2018-03-28T17:13:36.838Z,12.80
2018-03-28T17:16:04.301Z,13.37
2018-03-28T17:18:30.325Z,14.60
2018-03-28T17:20:57.154Z,15.20
2018-03-28T17:23:23.332Z,15.03
2018-03-28T17:25:52.723Z,16.87
2018-03-28T17:28:18.944Z,16.67
2018-03-28T17:30:45.710Z,16.97
2018-03-28T17:33:11.917Z,22.03
2018-03-28T17:35:38.126Z,16.13
2018-03-28T17:38:04.403Z,20.23
2018-03-28T17:40:30.890Z,15.20
2018-03-28T17:42:58.268Z,16.90
2018-03-28T17:45:29.350Z,16.47
2018-03-28T17:47:55.983Z,17.33
2018-03-28T17:50:22.578Z,15.43
2018-03-28T17:52:48.696Z,19.57
2018-03-28T17:55:15.729Z,21.63
2018-03-28T17:57:42.846Z,18.43
2018-03-28T18:00:09.011Z,20.47
2018-03-28T18:02:36.305Z,19.60
2018-03-28T18:05:03.242Z,22.97
2018-03-28T18:24:12.770Z,13.40
2018-03-28T18:26:40.088Z,17.03
2018-03-28T18:32:41.310Z,15.57
2018-03-28T18:35:07.823Z,12.33
2018-03-28T18:40:05.406Z,12.43
2018-03-28T18:56:37.069Z,11.33
2018-03-28T18:59:03.197Z,12.50
2018-03-28T19:01:32.573Z,16.50
2018-03-28T19:03:59.219Z,21.63
2018-03-28T19:06:26.823Z,12.13
2018-03-28T19:08:57.206Z,13.03
2018-03-28T19:11:27.610Z,17.63
2018-03-28T19:13:54.181Z,14.53
2018-03-28T19:16:21.891Z,16.30
2018-03-28T19:18:51.156Z,16.00
2018-03-28T19:21:17.935Z,13.20
2018-03-28T19:23:44.701Z,13.57
2018-03-28T19:26:11.186Z,15.53
2018-03-28T19:28:37.513Z,14.43
2018-03-28T19:31:04.090Z,13.97
2018-03-28T19:33:30.269Z,11.67
2018-03-28T19:35:56.576Z,12.83
2018-03-28T19:38:23.292Z,11.00
2018-03-28T19:40:50.505Z,10.53
2018-03-28T19:43:16.563Z,9.90
2018-03-28T19:45:42.602Z,11.70
2018-03-28T19:48:08.702Z,13.50
2018-03-28T19:50:34.814Z,13.00
2018-03-28T19:53:00.938Z,13.53
2018-03-28T19:55:27.045Z,10.90
2018-03-28T19:57:54.327Z,12.73
2018-03-28T20:00:20.428Z,10.57
2018-03-28T20:02:46.476Z,16.53
2018-03-28T20:05:13.085Z,12.23
2018-03-28T20:07:39.094Z,12.20
2018-03-28T20:10:05.229Z,12.77
2018-03-28T20:12:31.540Z,10.30
2018-03-28T20:14:57.700Z,9.80
2018-03-28T20:17:24.393Z,10.90
2018-03-28T20:19:50.386Z,10.27
2018-03-28T20:22:16.502Z,13.03
2018-03-28T20:24:42.519Z,11.13
2018-03-28T20:27:08.589Z,8.83
2018-03-28T20:29:34.957Z,9.30
2018-03-28T20:32:00.999Z,9.40
2018-03-28T20:34:27.418Z,8.80
2018-03-28T20:36:53.624Z,10.20
2018-03-28T20:39:19.784Z,11.70
2018-03-28T20:41:46.040Z,9.60
2018-03-28T20:44:12.296Z,7.93
2018-03-28T20:46:38.508Z,8.43
2018-03-28T20:49:04.820Z,7.60
2018-03-28T20:51:31.229Z,7.27
2018-03-28T20:53:57.272Z,6.90
2018-03-28T20:56:23.458Z,6.57
2018-03-28T20:58:49.708Z,7.03
2018-03-28T21:01:16.042Z,5.93
2018-03-28T21:03:42.181Z,5.10
2018-03-28T21:06:08.558Z,5.40
2018-03-28T21:08:34.851Z,5.90
2018-03-28T21:11:02.295Z,5.27
2018-03-28T21:13:28.624Z,4.90
2018-03-28T21:15:54.684Z,4.13
2018-03-28T21:18:21.071Z,3.43
2018-03-28T21:20:47.203Z,3.97
2018-03-28T21:23:13.637Z,3.87
2018-03-28T21:25:40.020Z,3.33
2018-03-28T21:28:06.077Z,3.77
2018-03-28T21:30:32.087Z,3.23
2018-03-28T21:32:58.673Z,3.57
2018-03-28T21:35:24.838Z,4.43
2018-03-28T21:37:52.425Z,3.43
2018-03-28T21:40:18.505Z,3.40
2018-03-28T21:42:45.181Z,3.70
2018-03-28T21:45:11.399Z,3.60
2018-03-28T21:47:37.468Z,3.37
2018-03-28T21:50:03.892Z,3.07
2018-03-28T21:52:30.032Z,3.03
2018-03-28T21:54:56.383Z,3.43
2018-03-28T21:57:22.472Z,3.77
2018-03-28T21:59:48.631Z,3.67
2018-03-28T22:02:15.017Z,3.63
2018-03-28T22:04:41.124Z,4.03
2018-03-28T22:07:08.517Z,4.80
2018-03-28T22:09:34.907Z,3.90
2018-03-28T22:12:00.918Z,4.53
2018-03-28T22:14:27.031Z,5.53
2018-03-28T22:16:53.090Z,5.47
2018-03-28T22:19:19.208Z,4.77
2018-03-28T22:21:45.583Z,4.40
2018-03-28T22:24:11.621Z,4.10
2018-03-28T22:26:38.201Z,3.70
2018-03-28T22:29:04.575Z,5.53
2018-03-28T22:31:30.659Z,3.70
2018-03-28T22:33:56.684Z,3.30
2018-03-28T22:36:22.754Z,3.57
2018-03-28T22:38:49.646Z,3.33
2018-03-28T22:41:15.737Z,3.40
2018-03-28T22:43:41.801Z,3.57
2018-03-28T22:46:07.906Z,3.90
2018-03-28T22:48:34.024Z,4.70
2018-03-28T22:51:07.589Z,4.17
2018-03-28T22:53:35.151Z,5.40
2018-03-28T22:56:01.309Z,4.83
2018-03-28T22:58:27.778Z,5.40
2018-03-28T23:00:53.807Z,5.10
2018-03-28T23:03:19.907Z,4.87
2018-03-28T23:05:45.962Z,5.70
2018-03-28T23:08:14.445Z,6.90
2018-03-28T23:10:40.913Z,6.17
2018-03-28T23:13:08.123Z,6.20
2018-03-28T23:15:34.452Z,7.07
2018-03-28T23:18:02.270Z,7.13
2018-03-28T23:20:37.459Z,6.17
2018-03-28T23:23:04.221Z,5.83
2018-03-28T23:25:30.320Z,6.77
2018-03-28T23:27:56.907Z,6.40
2018-03-28T23:30:23.210Z,6.87
2018-03-28T23:32:49.728Z,6.87
2018-03-28T23:35:16.361Z,7.13
2018-03-28T23:37:43.153Z,7.50
2018-03-28T23:40:09.285Z,7.00
2018-03-28T23:42:35.763Z,6.77
2018-03-28T23:45:01.885Z,7.67
2018-03-28T23:47:28.056Z,7.87
2018-03-28T23:49:54.891Z,6.30
2018-03-28T23:52:28.681Z,7.50
2018-03-28T23:54:57.431Z,7.47
2018-03-28T23:57:23.578Z,7.67
2018-03-28T23:59:49.767Z,5.57
